Time;durP1;ratioP1;P1;durP2;ratioP2;P2;SDS_P1;SDS_P2;PMS_P1;PMS_P2;Temp;Humidity;BMP_temperature;BMP_pressure;BME280_temperature;BME280_humidity;BME280_pressure;Samples;Min_cycle;Max_cycle;Signal;HPM_P1;HPM_P2
2022/06/12 00:00:17;;;;;;;3.33;3.13;;;16.70;95.70;;;;;;5109423;28;20620;-87
2022/06/12 00:02:44;;;;;;;3.70;2.23;;;16.70;95.80;;;;;;5110453;28;20672;-86
2022/06/12 00:05:12;;;;;;;3.63;3.33;;;16.60;96.00;;;;;;5108834;28;20623;-87
2022/06/12 00:07:40;;;;;;;3.80;2.50;;;16.70;95.70;;;;;;5107820;28;20615;-89
2022/06/12 00:10:10;;;;;;;2.77;2.53;;;16.70;95.70;;;;;;5095906;27;20708;-88
2022/06/12 00:12:39;;;;;;;2.50;2.30;;;16.70;95.70;;;;;;5110664;27;20608;-87
2022/06/12 00:15:09;;;;;;;2.20;1.90;;;16.60;96.40;;;;;;5109094;28;21193;-87
2022/06/12 00:17:38;;;;;;;2.40;2.20;;;16.60;96.70;;;;;;5109188;27;20627;-88
2022/06/12 00:20:09;;;;;;;2.33;2.13;;;16.50;97.10;;;;;;5109263;28;20623;-87
2022/06/12 00:22:37;;;;;;;3.47;2.60;;;16.40;97.40;;;;;;5109647;28;20718;-87
2022/06/12 00:25:10;;;;;;;1.90;1.80;;;16.40;97.10;;;;;;5108577;28;21035;-89
2022/06/12 00:27:37;;;;;;;2.80;2.53;;;16.40;97.30;;;;;;5108629;28;20707;-88
2022/06/12 00:30:05;;;;;;;2.57;2.37;;;16.40;96.70;;;;;;5109564;28;21208;-87
2022/06/12 00:32:35;;;;;;;2.07;1.97;;;16.50;96.90;;;;;;5109017;28;21032;-88
2022/06/12 00:35:05;;;;;;;1.97;1.87;;;16.50;97.00;;;;;;5109035;28;21166;-87
2022/06/12 00:37:34;;;;;;;2.77;2.40;;;16.40;97.00;;;;;;5108537;28;20632;-88
2022/06/12 00:40:03;;;;;;;2.00;1.90;;;16.40;96.20;;;;;;5097560;28;21239;-88
2022/06/12 00:42:35;;;;;;;2.43;2.23;;;16.30;97.10;;;;;;5107335;28;20616;-88
2022/06/12 00:45:43;;;;;;;2.63;2.43;;;16.30;96.70;;;;;;5108465;28;20624;-87
2022/06/12 00:48:18;;;;;;;2.80;2.20;;;16.40;96.30;;;;;;5103663;27;20634;-89
2022/06/12 00:50:50;;;;;;;2.70;2.50;;;16.30;97.20;;;;;;5108562;28;20670;-87
2022/06/12 00:53:24;;;;;;;2.40;2.13;;;16.30;97.50;;;;;;5109251;28;20710;-88
2022/06/12 00:56:02;;;;;;;2.27;2.17;;;16.20;97.90;;;;;;5106658;28;21216;-87
2022/06/12 00:58:33;;;;;;;2.93;2.63;;;16.20;97.90;;;;;;5108029;28;20628;-88
2022/06/12 01:01:01;;;;;;;2.30;2.07;;;16.10;98.20;;;;;;5108699;28;20624;-88
2022/06/12 01:03:29;;;;;;;2.50;2.30;;;16.10;97.70;;;;;;5108584;28;21199;-88
2022/06/12 01:08:41;;;;;;;2.27;2.07;;;16.10;97.60;;;;;;5108282;28;20624;-88
2022/06/12 01:11:14;;;;;;;2.67;2.20;;;16.10;98.40;;;;;;5108525;28;21049;-88
2022/06/12 01:13:45;;;;;;;2.30;2.20;;;16.00;98.40;;;;;;5109360;28;20653;-87
2022/06/12 01:16:15;;;;;;;2.23;2.03;;;16.00;98.80;;;;;;5107515;28;20716;-87
2022/06/12 01:18:49;;;;;;;3.53;2.30;;;16.00;99.00;;;;;;5107154;28;20681;-87
2022/06/12 01:21:55;;;;;;;2.07;1.97;;;15.80;99.10;;;;;;5108069;28;20612;-88
2022/06/12 01:24:41;;;;;;;3.10;2.60;;;15.80;99.50;;;;;;5092543;28;21360;-88
2022/06/12 01:27:51;;;;;;;2.67;2.47;;;15.80;99.00;;;;;;5107777;28;20623;-88
2022/06/12 01:30:28;;;;;;;2.60;2.40;;;15.80;98.60;;;;;;5107939;28;20722;-87
2022/06/12 01:33:02;;;;;;;2.43;2.23;;;15.80;99.20;;;;;;5107838;28;20624;-88
2022/06/12 01:35:42;;;;;;;2.80;2.60;;;15.80;99.70;;;;;;5107886;28;21173;-88
2022/06/12 01:38:17;;;;;;;2.30;2.17;;;15.80;99.40;;;;;;5104675;28;20734;-86
2022/06/12 01:40:54;;;;;;;2.83;2.63;;;15.70;99.60;;;;;;5108222;28;20631;-87
2022/06/12 01:43:37;;;;;;;2.70;2.50;;;15.70;99.90;;;;;;5107528;28;20673;-87
2022/06/12 01:46:14;;;;;;;2.73;2.53;;;15.70;99.90;;;;;;5107258;27;20971;-88
2022/06/12 01:48:45;;;;;;;3.00;2.40;;;15.60;99.50;;;;;;5105512;28;20611;-88
2022/06/12 01:51:21;;;;;;;2.63;2.10;;;15.60;99.10;;;;;;5107536;28;20755;-87
2022/06/12 01:53:57;;;;;;;3.77;2.43;;;15.70;98.60;;;;;;5108929;28;20619;-88
2022/06/12 01:56:32;;;;;;;2.07;1.97;;;15.70;98.50;;;;;;5111060;28;22323;-87
2022/06/12 01:59:05;;;;;;;3.53;2.20;;;15.70;99.80;;;;;;5111229;28;20624;-87
2022/06/12 02:01:38;;;;;;;2.27;2.07;;;15.50;99.90;;;;;;5112066;28;21188;-86
2022/06/12 02:04:12;;;;;;;2.47;2.27;;;15.40;99.90;;;;;;5112044;28;21150;-88
2022/06/12 02:06:43;;;;;;;2.97;2.67;;;15.40;99.90;;;;;;5110643;28;20660;-88
2022/06/12 02:09:16;;;;;;;2.43;2.23;;;15.40;99.90;;;;;;5111532;28;20620;-88
2022/06/12 02:14:39;;;;;;;3.47;2.83;;;15.40;99.90;;;;;;5111088;28;20608;-88
2022/06/12 02:17:12;;;;;;;1.90;1.80;;;15.40;99.90;;;;;;5110839;28;20689;-87
2022/06/12 02:19:43;;;;;;;3.57;2.57;;;15.30;99.90;;;;;;5111731;28;20631;-88
2022/06/12 02:22:15;;;;;;;2.33;2.00;;;15.30;99.90;;;;;;5112043;28;20627;-87
2022/06/12 02:24:46;;;;;;;2.50;2.13;;;15.20;99.90;;;;;;5111572;28;20653;-86
2022/06/12 02:27:17;;;;;;;2.03;1.83;;;15.20;99.90;;;;;;5110955;28;20657;-87
2022/06/12 02:29:48;;;;;;;2.97;2.80;;;15.10;99.90;;;;;;5111909;28;20661;-88
2022/06/12 02:32:20;;;;;;;2.07;1.87;;;15.10;99.90;;;;;;5110971;28;20781;-87
2022/06/12 02:35:00;;;;;;;2.73;2.53;;;15.10;99.90;;;;;;5111682;28;21013;-87
2022/06/12 02:37:31;;;;;;;3.67;2.30;;;15.10;99.90;;;;;;5110483;28;20611;-88
2022/06/12 02:40:03;;;;;;;3.53;2.33;;;15.10;99.90;;;;;;5107138;28;21126;-87
2022/06/12 02:42:37;;;;;;;2.80;2.60;;;15.10;99.90;;;;;;5100703;28;20636;-89
2022/06/12 02:45:08;;;;;;;1.97;1.80;;;15.10;99.90;;;;;;5111256;28;20641;-87
2022/06/12 02:47:39;;;;;;;2.13;1.83;;;15.10;99.90;;;;;;5110809;27;21039;-88
2022/06/12 02:50:09;;;;;;;3.33;3.03;;;15.10;99.90;;;;;;5111171;28;20619;-87
2022/06/12 02:52:42;;;;;;;3.93;2.43;;;15.20;99.90;;;;;;5111315;28;21048;-87
2022/06/12 02:55:19;;;;;;;3.23;2.93;;;15.10;99.90;;;;;;5110697;28;20630;-88
2022/06/12 02:57:56;;;;;;;2.53;2.33;;;15.00;99.90;;;;;;5111126;28;20623;-88
2022/06/12 03:00:32;;;;;;;2.63;2.33;;;15.00;99.90;;;;;;5110250;28;20710;-87
2022/06/12 03:03:09;;;;;;;3.63;2.37;;;15.00;99.90;;;;;;5111550;28;20603;-87
2022/06/12 03:05:40;;;;;;;2.60;2.20;;;15.00;99.90;;;;;;5108997;28;21117;-87
2022/06/12 03:08:16;;;;;;;2.30;2.20;;;14.90;99.90;;;;;;5110905;28;20659;-85
2022/06/12 03:10:48;;;;;;;4.63;2.47;;;14.80;99.90;;;;;;5110570;28;20719;-87
2022/06/12 03:13:17;;;;;;;2.50;2.33;;;14.80;99.90;;;;;;5110449;28;20652;-87
2022/06/12 03:15:47;;;;;;;2.57;2.37;;;14.80;99.90;;;;;;5109916;28;20687;-87
2022/06/12 03:18:20;;;;;;;2.40;2.20;;;14.90;99.90;;;;;;5110318;28;20730;-88
2022/06/12 03:21:08;;;;;;;2.53;2.07;;;14.90;99.90;;;;;;5110536;28;20696;-86
2022/06/12 03:23:56;;;;;;;1.73;1.63;;;14.90;99.90;;;;;;5110104;27;20712;-86
2022/06/12 03:26:36;;;;;;;2.73;2.53;;;14.70;99.90;;;;;;5109420;28;20619;-87
2022/06/12 03:29:09;;;;;;;2.50;2.13;;;14.70;99.90;;;;;;5110843;28;20627;-87
2022/06/12 03:31:43;;;;;;;2.43;2.23;;;14.80;99.90;;;;;;5109168;28;20748;-87
2022/06/12 03:34:18;;;;;;;2.47;2.27;;;14.70;99.90;;;;;;5110910;28;20615;-87
2022/06/12 03:36:53;;;;;;;2.30;2.10;;;14.70;99.90;;;;;;5108970;28;21200;-87
2022/06/12 03:39:26;;;;;;;2.73;2.47;;;14.70;99.90;;;;;;5109920;28;20622;-87
2022/06/12 03:42:01;;;;;;;1.93;1.73;;;14.60;99.90;;;;;;5106299;28;20630;-87
2022/06/12 03:44:36;;;;;;;2.40;2.20;;;14.60;99.90;;;;;;5110076;28;20704;-87
2022/06/12 03:47:11;;;;;;;2.70;2.10;;;14.60;99.90;;;;;;5109519;28;20669;-87
2022/06/12 03:49:46;;;;;;;2.67;2.47;;;14.60;99.90;;;;;;5109883;28;21530;-87
2022/06/12 03:52:21;;;;;;;2.27;1.90;;;14.60;99.90;;;;;;5110088;28;20690;-86
2022/06/12 03:54:55;;;;;;;2.63;2.20;;;14.60;99.90;;;;;;5110065;28;20665;-87
2022/06/12 04:00:17;;;;;;;2.10;1.93;;;14.60;99.90;;;;;;5106496;28;20724;-88
2022/06/12 04:02:46;;;;;;;3.80;2.57;;;14.70;99.90;;;;;;5109848;28;20726;-87
2022/06/12 04:05:19;;;;;;;2.50;2.30;;;14.80;99.90;;;;;;5109444;28;20616;-87
2022/06/12 04:07:49;;;;;;;1.60;1.50;;;14.80;99.90;;;;;;5109760;28;20673;-87
2022/06/12 04:10:18;;;;;;;2.77;2.03;;;14.80;99.90;;;;;;5109656;28;20620;-88
2022/06/12 04:12:45;;;;;;;2.23;1.70;;;14.90;99.90;;;;;;5110082;28;20655;-86
2022/06/12 04:15:17;;;;;;;2.30;2.10;;;15.00;99.90;;;;;;5108776;28;20627;-87
2022/06/12 04:17:44;;;;;;;3.17;2.60;;;15.00;99.90;;;;;;5109498;28;20652;-87
2022/06/12 04:20:17;;;;;;;3.10;2.80;;;15.00;99.90;;;;;;5109796;28;20624;-87
2022/06/12 04:22:52;;;;;;;6.77;3.07;;;15.10;99.90;;;;;;5109376;28;20671;-87
2022/06/12 04:25:35;;;;;;;3.17;2.87;;;15.20;99.90;;;;;;5109170;28;20632;-85
2022/06/12 04:28:05;;;;;;;2.60;2.40;;;15.30;99.90;;;;;;5109782;28;20624;-87
2022/06/12 04:30:34;;;;;;;2.90;2.23;;;15.40;99.90;;;;;;5107465;28;21463;-87
2022/06/12 04:33:23;;;;;;;2.63;2.37;;;15.40;99.90;;;;;;5103838;27;20673;-87
2022/06/12 04:35:54;;;;;;;2.73;2.30;;;15.50;99.90;;;;;;5114972;27;20647;-87
2022/06/12 04:38:22;;;;;;;3.10;2.80;;;15.60;99.90;;;;;;5109626;28;21030;-87
2022/06/12 04:40:49;;;;;;;4.30;3.00;;;15.70;99.90;;;;;;5108660;28;20613;-89
2022/06/12 04:43:17;;;;;;;3.37;3.17;;;15.70;99.90;;;;;;5108555;28;20611;-87
2022/06/12 04:45:45;;;;;;;2.60;2.40;;;15.80;99.90;;;;;;5108249;28;20661;-89
2022/06/12 04:48:16;;;;;;;2.17;2.03;;;16.00;99.90;;;;;;5109063;28;20620;-88
2022/06/12 04:50:43;;;;;;;3.00;2.77;;;16.10;99.90;;;;;;5109271;28;20730;-88
2022/06/12 04:53:11;;;;;;;2.83;2.60;;;16.10;99.90;;;;;;5108980;28;20604;-86
2022/06/12 04:55:38;;;;;;;3.27;3.00;;;16.10;99.90;;;;;;5107662;28;20632;-87
2022/06/12 04:58:05;;;;;;;2.60;2.40;;;16.10;99.90;;;;;;5108447;28;20681;-85
2022/06/12 05:00:33;;;;;;;3.03;2.53;;;16.30;99.90;;;;;;5141780;27;20628;-88
2022/06/12 05:03:01;;;;;;;3.53;3.07;;;16.50;99.90;;;;;;5108863;28;21196;-87
2022/06/12 05:05:28;;;;;;;2.20;2.10;;;16.60;99.90;;;;;;5108147;28;20616;-88
2022/06/12 05:07:55;;;;;;;2.10;2.00;;;16.60;99.90;;;;;;5108858;28;20620;-87
2022/06/12 05:10:24;;;;;;;2.57;2.33;;;16.80;99.90;;;;;;5108226;28;20608;-87
2022/06/12 05:12:51;;;;;;;5.20;3.30;;;16.80;99.90;;;;;;5108434;28;20716;-88
2022/06/12 05:15:18;;;;;;;1.83;1.73;;;16.90;99.90;;;;;;5108246;28;20713;-88
2022/06/12 05:17:48;;;;;;;2.30;2.10;;;17.00;99.90;;;;;;5108907;28;20701;-87
2022/06/12 05:20:18;;;;;;;3.23;2.70;;;17.10;99.80;;;;;;5109331;28;20636;-88
2022/06/12 05:22:45;;;;;;;3.50;2.60;;;17.20;99.50;;;;;;5108610;28;20619;-87
2022/06/12 05:25:13;;;;;;;3.30;2.70;;;17.30;99.50;;;;;;5107939;28;20631;-89
2022/06/12 05:27:42;;;;;;;2.67;2.47;;;17.40;99.30;;;;;;5108701;28;20846;-88
2022/06/12 05:30:13;;;;;;;2.80;2.57;;;17.50;99.10;;;;;;5108377;28;20744;-87
2022/06/12 05:32:41;;;;;;;3.40;3.10;;;17.60;99.20;;;;;;5108324;28;20717;-88
2022/06/12 05:35:09;;;;;;;2.80;2.50;;;17.60;99.00;;;;;;5108537;28;21297;-88
2022/06/12 05:37:38;;;;;;;2.60;2.30;;;17.70;99.20;;;;;;5107148;28;20604;-87
2022/06/12 05:40:10;;;;;;;2.60;2.40;;;17.80;99.00;;;;;;5102361;28;21193;-87
2022/06/12 05:42:37;;;;;;;3.53;2.53;;;17.90;98.70;;;;;;5098881;28;20631;-88
2022/06/12 05:45:07;;;;;;;2.63;2.43;;;18.00;99.20;;;;;;5108105;28;20681;-88
2022/06/12 05:47:34;;;;;;;2.83;2.63;;;18.10;98.90;;;;;;5108356;28;21030;-86
2022/06/12 05:50:01;;;;;;;2.50;2.33;;;18.20;98.30;;;;;;5108207;28;20743;-87
2022/06/12 05:52:28;;;;;;;2.80;2.60;;;18.30;98.10;;;;;;5107755;28;21013;-86
2022/06/12 05:54:55;;;;;;;2.67;2.43;;;18.40;97.80;;;;;;5108278;28;20620;-87
2022/06/12 05:57:22;;;;;;;2.23;2.00;;;18.50;97.70;;;;;;5106593;28;20922;-87
2022/06/12 05:59:49;;;;;;;4.30;3.10;;;18.40;97.20;;;;;;5108021;28;20724;-88
2022/06/12 06:02:17;;;;;;;2.80;2.60;;;18.50;97.50;;;;;;5107669;28;20651;-88
2022/06/12 06:04:44;;;;;;;2.73;2.10;;;18.50;97.50;;;;;;5107781;28;20650;-88
2022/06/12 06:07:12;;;;;;;2.10;1.93;;;18.50;97.60;;;;;;5107569;28;20681;-88
2022/06/12 06:09:38;;;;;;;2.83;2.37;;;18.60;97.30;;;;;;5108471;28;20616;-86
2022/06/12 06:12:06;;;;;;;2.57;2.37;;;18.70;97.20;;;;;;5107824;28;20704;-88
2022/06/12 06:14:33;;;;;;;2.93;2.60;;;18.80;97.40;;;;;;5108037;28;20632;-87
2022/06/12 06:17:00;;;;;;;3.07;2.77;;;18.90;97.40;;;;;;5107629;28;20616;-87
2022/06/12 06:19:28;;;;;;;2.60;2.40;;;19.10;97.50;;;;;;5107157;28;20619;-87
2022/06/12 06:21:56;;;;;;;2.47;2.27;;;19.30;97.10;;;;;;5105855;28;20895;-85
2022/06/12 06:24:25;;;;;;;2.63;2.43;;;19.30;97.00;;;;;;5106064;28;20628;-87
2022/06/12 06:26:52;;;;;;;2.70;1.80;;;19.40;97.60;;;;;;5104938;28;21418;-88
2022/06/12 06:29:19;;;;;;;2.80;2.60;;;19.50;97.10;;;;;;5106151;28;20690;-87
2022/06/12 06:31:46;;;;;;;2.67;2.47;;;19.50;97.10;;;;;;5105098;28;20668;-88
2022/06/12 06:34:13;;;;;;;3.27;2.43;;;19.70;96.20;;;;;;5106995;28;20626;-87
2022/06/12 06:36:42;;;;;;;2.37;2.17;;;19.70;96.30;;;;;;5107908;28;21201;-87
2022/06/12 06:39:08;;;;;;;1.90;1.80;;;19.70;96.40;;;;;;5097929;28;20641;-86
2022/06/12 06:41:35;;;;;;;3.33;3.03;;;19.80;96.30;;;;;;5109136;28;20635;-87
2022/06/12 06:46:47;;;;;;;1.93;1.83;;;19.90;95.50;;;;;;5107510;28;20703;-87
2022/06/12 06:49:14;;;;;;;2.20;1.97;;;20.00;94.20;;;;;;5092257;28;20656;-87
2022/06/12 06:51:42;;;;;;;2.20;2.10;;;20.10;95.30;;;;;;5103440;28;21036;-87
2022/06/12 06:54:09;;;;;;;3.97;3.63;;;20.10;94.60;;;;;;5112674;28;20607;-87
2022/06/12 06:56:37;;;;;;;2.90;2.70;;;20.10;94.90;;;;;;5111435;28;20647;-87
2022/06/12 06:59:04;;;;;;;2.47;2.27;;;20.20;95.00;;;;;;5113159;28;20616;-86
2022/06/12 07:01:31;;;;;;;2.57;2.37;;;20.20;94.10;;;;;;5113487;28;20626;-85
2022/06/12 07:03:58;;;;;;;2.37;2.23;;;20.20;94.60;;;;;;5114245;28;20607;-87
2022/06/12 07:06:25;;;;;;;2.30;2.20;;;20.40;94.60;;;;;;5113287;28;20619;-86
2022/06/12 07:08:54;;;;;;;1.90;1.80;;;20.50;94.90;;;;;;5113059;28;20616;-87
2022/06/12 07:11:21;;;;;;;2.60;2.40;;;20.60;95.00;;;;;;5113542;28;20623;-87
2022/06/12 07:13:48;;;;;;;2.50;2.30;;;20.70;94.40;;;;;;5114390;28;20786;-86
2022/06/12 07:16:15;;;;;;;2.10;2.00;;;20.70;94.00;;;;;;5112999;28;20725;-85
2022/06/12 07:18:42;;;;;;;2.73;1.80;;;21.00;93.90;;;;;;5112625;28;20611;-87
2022/06/12 07:21:10;;;;;;;2.97;2.77;;;21.10;93.70;;;;;;5111990;28;20615;-87
2022/06/12 07:23:38;;;;;;;2.40;2.20;;;21.20;93.40;;;;;;5111241;28;20626;-88
2022/06/12 07:26:12;;;;;;;2.10;2.00;;;21.20;93.50;;;;;;5107683;28;20653;-87
2022/06/12 07:28:40;;;;;;;2.40;2.20;;;21.30;94.00;;;;;;5108397;28;21269;-86
2022/06/12 07:31:08;;;;;;;2.60;2.40;;;21.30;94.00;;;;;;5110166;28;20627;-86
2022/06/12 07:33:37;;;;;;;2.20;2.00;;;21.30;93.40;;;;;;5111468;28;20667;-87
2022/06/12 07:36:05;;;;;;;3.00;2.23;;;21.40;93.30;;;;;;5110364;28;20634;-87
2022/06/12 07:38:32;;;;;;;3.00;2.80;;;21.60;93.70;;;;;;5110434;28;20626;-86
2022/06/12 07:41:02;;;;;;;2.53;2.33;;;21.70;92.80;;;;;;5101762;28;20620;-87
2022/06/12 07:43:34;;;;;;;2.10;1.97;;;21.70;93.10;;;;;;5109928;28;20659;-86
2022/06/12 07:46:03;;;;;;;2.30;2.20;;;21.80;92.40;;;;;;5111899;28;20717;-87
2022/06/12 07:48:31;;;;;;;2.50;2.30;;;21.90;92.30;;;;;;5112051;28;21406;-86
2022/06/12 07:51:00;;;;;;;2.40;2.20;;;21.90;91.20;;;;;;5110442;28;20628;-86
2022/06/12 07:53:27;;;;;;;2.40;2.10;;;22.00;90.40;;;;;;5110906;28;20663;-86
2022/06/12 07:55:55;;;;;;;3.03;2.80;;;22.20;91.30;;;;;;5111010;28;20627;-87
2022/06/12 07:58:24;;;;;;;3.00;2.80;;;22.20;91.30;;;;;;5098154;27;20713;-85
2022/06/12 08:00:53;;;;;;;3.40;2.47;;;22.30;90.50;;;;;;5106196;28;20741;-87
2022/06/12 08:03:20;;;;;;;2.20;2.00;;;22.40;91.40;;;;;;5111783;28;20630;-86
2022/06/12 08:05:47;;;;;;;2.77;2.57;;;22.40;89.00;;;;;;5111083;28;21155;-87
2022/06/12 08:08:17;;;;;;;2.60;2.40;;;22.50;90.50;;;;;;5110315;28;20616;-88
2022/06/12 08:10:44;;;;;;;2.83;2.07;;;22.60;88.50;;;;;;5111719;28;20731;-87
2022/06/12 08:13:11;;;;;;;2.00;1.80;;;22.70;87.00;;;;;;5110367;28;20655;-87
2022/06/12 08:15:40;;;;;;;2.00;1.90;;;22.70;86.00;;;;;;5111747;28;20626;-87
2022/06/12 08:18:09;;;;;;;2.60;2.40;;;22.80;86.60;;;;;;5111681;28;20707;-87
2022/06/12 08:20:39;;;;;;;2.00;1.90;;;22.80;86.10;;;;;;5111345;28;20604;-84
2022/06/12 08:23:26;;;;;;;2.10;1.83;;;22.90;86.20;;;;;;5111026;28;21219;-87
2022/06/12 08:25:55;;;;;;;2.20;2.10;;;23.00;84.50;;;;;;5110081;28;20666;-87
2022/06/12 08:28:25;;;;;;;1.70;1.60;;;23.10;85.20;;;;;;5110381;28;20627;-86
2022/06/12 08:30:52;;;;;;;2.03;1.93;;;23.20;83.00;;;;;;5111240;28;20649;-87
2022/06/12 08:33:21;;;;;;;2.63;2.07;;;23.20;81.30;;;;;;5109325;28;20712;-86
2022/06/12 08:35:48;;;;;;;3.20;2.43;;;23.40;83.40;;;;;;5110322;28;20647;-87
2022/06/12 08:38:15;;;;;;;2.40;2.20;;;23.50;83.80;;;;;;5111039;28;20616;-87
2022/06/12 08:40:50;;;;;;;2.20;2.03;;;23.80;82.50;;;;;;5111550;28;20715;-86
2022/06/12 08:43:27;;;;;;;2.27;2.10;;;23.70;83.20;;;;;;5107198;28;20615;-86
2022/06/12 08:46:00;;;;;;;2.00;1.90;;;23.80;81.10;;;;;;5109407;28;20635;-87
2022/06/12 08:48:35;;;;;;;1.87;1.77;;;24.00;81.20;;;;;;5110115;28;20668;-88
2022/06/12 08:51:09;;;;;;;2.13;2.03;;;24.10;81.30;;;;;;5108023;28;20722;-88
2022/06/12 08:53:42;;;;;;;2.60;2.30;;;24.20;79.70;;;;;;5108280;28;20783;-87
2022/06/12 08:56:14;;;;;;;2.00;1.90;;;24.50;79.60;;;;;;5108339;28;20627;-86
2022/06/12 08:58:48;;;;;;;2.03;1.93;;;24.60;72.40;;;;;;5107502;28;20624;-88
2022/06/12 09:01:15;;;;;;;2.70;2.40;;;24.70;72.10;;;;;;5108551;28;20638;-88
2022/06/12 09:03:49;;;;;;;1.70;1.60;;;24.70;72.60;;;;;;5107219;28;21238;-87
2022/06/12 09:06:30;;;;;;;1.90;1.80;;;24.80;72.80;;;;;;5108843;28;20659;-87
2022/06/12 09:09:08;;;;;;;3.87;2.80;;;24.80;75.30;;;;;;5108577;28;21244;-87
2022/06/12 09:11:41;;;;;;;4.60;2.00;;;24.70;72.40;;;;;;5109445;28;20631;-85
2022/06/12 09:14:19;;;;;;;3.23;2.37;;;24.70;73.30;;;;;;5108760;28;20695;-87
2022/06/12 09:16:58;;;;;;;2.83;2.40;;;24.90;73.00;;;;;;5107390;28;20738;-87
2022/06/12 09:19:38;;;;;;;2.57;2.47;;;24.90;75.80;;;;;;5109037;28;21088;-87
2022/06/12 09:22:12;;;;;;;2.53;2.33;;;25.30;76.80;;;;;;5108838;28;20845;-87
2022/06/12 09:24:49;;;;;;;2.70;2.50;;;25.40;75.60;;;;;;5108249;28;20659;-87
2022/06/12 09:27:25;;;;;;;2.40;2.20;;;25.40;74.30;;;;;;5107865;28;21116;-88
2022/06/12 09:30:01;;;;;;;2.47;2.27;;;25.50;74.60;;;;;;5108821;28;20628;-88
2022/06/12 09:32:39;;;;;;;3.87;2.80;;;25.80;72.20;;;;;;5098725;28;20651;-87
2022/06/12 09:35:20;;;;;;;2.90;2.60;;;25.80;71.50;;;;;;5108160;28;20700;-87
2022/06/12 09:38:22;;;;;;;2.60;2.40;;;25.80;73.00;;;;;;5109348;28;20725;-87
2022/06/12 09:41:08;;;;;;;3.67;3.00;;;25.70;72.30;;;;;;5096024;28;21045;-87
2022/06/12 09:43:41;;;;;;;3.00;2.80;;;25.70;72.80;;;;;;5101822;28;20624;-87
2022/06/12 09:46:24;;;;;;;3.60;3.30;;;25.60;74.90;;;;;;5108193;28;20674;-87
2022/06/12 09:49:02;;;;;;;2.40;2.20;;;25.60;75.00;;;;;;5108322;28;20977;-85
2022/06/12 09:52:02;;;;;;;1.80;1.70;;;25.60;76.10;;;;;;5107351;28;20619;-85
2022/06/12 09:54:42;;;;;;;2.23;2.03;;;25.80;74.00;;;;;;5108652;28;20662;-87
2022/06/12 09:57:17;;;;;;;2.83;2.50;;;25.90;70.20;;;;;;5107169;28;20716;-85
2022/06/12 09:59:51;;;;;;;2.40;2.13;;;25.70;69.10;;;;;;5108068;28;21049;-87
2022/06/12 10:02:22;;;;;;;3.43;3.17;;;25.40;69.30;;;;;;5107978;28;20646;-87
2022/06/12 10:04:56;;;;;;;2.80;2.60;;;25.60;72.80;;;;;;5108756;28;20946;-87
2022/06/12 10:07:31;;;;;;;2.47;2.33;;;26.00;73.90;;;;;;5107646;28;20620;-87
2022/06/12 10:10:03;;;;;;;3.50;3.20;;;26.20;74.00;;;;;;5107903;28;20627;-88
2022/06/12 10:12:37;;;;;;;2.50;2.30;;;26.20;70.00;;;;;;5107888;28;20623;-87
2022/06/12 10:15:12;;;;;;;6.97;2.27;;;26.10;72.80;;;;;;5110428;28;20617;-87
2022/06/12 10:17:45;;;;;;;2.70;2.50;;;25.80;76.50;;;;;;5113158;28;20615;-87
2022/06/12 10:20:16;;;;;;;2.97;2.77;;;25.60;75.30;;;;;;5112432;28;20626;-87
2022/06/12 10:22:46;;;;;;;3.00;2.80;;;25.60;74.40;;;;;;5113412;28;20722;-87
2022/06/12 10:25:21;;;;;;;2.80;2.60;;;25.60;76.80;;;;;;5110567;28;20640;-88
2022/06/12 10:27:51;;;;;;;2.80;2.10;;;25.60;71.20;;;;;;5113313;28;20615;-88
2022/06/12 10:30:31;;;;;;;2.20;2.10;;;25.70;73.10;;;;;;5112090;28;20617;-87
2022/06/12 10:33:07;;;;;;;2.80;2.60;;;26.20;72.40;;;;;;5111857;28;20691;-84
2022/06/12 10:35:45;;;;;;;2.57;2.37;;;26.60;70.80;;;;;;5110933;28;20707;-87
2022/06/12 10:38:14;;;;;;;3.10;2.90;;;27.10;67.50;;;;;;5108412;28;20625;-86
2022/06/12 10:40:48;;;;;;;2.90;2.70;;;27.20;64.80;;;;;;5105411;28;20737;-86
2022/06/12 10:43:25;;;;;;;2.60;2.40;;;27.50;69.60;;;;;;5111660;28;20980;-88
2022/06/12 10:46:02;;;;;;;2.70;2.60;;;27.60;68.70;;;;;;5111845;28;20603;-88
2022/06/12 10:48:34;;;;;;;2.43;2.30;;;27.90;68.10;;;;;;5112751;27;20623;-87
2022/06/12 10:51:04;;;;;;;2.17;2.07;;;28.10;65.60;;;;;;5110254;28;20711;-88
2022/06/12 10:53:34;;;;;;;3.53;3.10;;;28.30;63.10;;;;;;5111880;28;21321;-88
2022/06/12 10:56:11;;;;;;;2.70;2.50;;;28.60;63.70;;;;;;5110783;28;20612;-87
2022/06/12 10:59:00;;;;;;;2.13;2.03;;;28.40;62.00;;;;;;5097515;28;21078;-88
2022/06/12 11:01:33;;;;;;;2.67;2.47;;;28.60;59.90;;;;;;5111125;28;20619;-88
2022/06/12 11:04:10;;;;;;;2.80;2.60;;;28.60;59.40;;;;;;5110806;28;20663;-85
2022/06/12 11:06:48;;;;;;;2.10;2.00;;;28.80;59.20;;;;;;5110696;28;20693;-86
2022/06/12 11:09:25;;;;;;;2.87;2.67;;;28.50;58.80;;;;;;5111924;28;20638;-85
2022/06/12 11:12:04;;;;;;;2.07;1.87;;;28.50;60.60;;;;;;5110958;28;20730;-86
2022/06/12 11:14:48;;;;;;;2.50;2.30;;;28.90;59.80;;;;;;5100787;28;20655;-86
2022/06/12 11:17:36;;;;;;;2.73;2.53;;;29.10;58.50;;;;;;5109835;28;20667;-86
2022/06/12 11:20:14;;;;;;;2.70;2.50;;;28.80;59.20;;;;;;5112179;28;20615;-86
2022/06/12 11:22:51;;;;;;;2.33;2.13;;;28.50;61.10;;;;;;5110774;28;20618;-87
2022/06/12 11:25:34;;;;;;;2.07;1.97;;;28.60;58.60;;;;;;5111524;28;20634;-86
2022/06/12 11:28:18;;;;;;;2.50;2.40;;;28.60;59.60;;;;;;5104468;28;20700;-86
2022/06/12 11:30:53;;;;;;;2.13;2.03;;;28.40;61.50;;;;;;5111730;28;21258;-86
2022/06/12 11:33:48;;;;;;;2.77;2.57;;;28.40;59.80;;;;;;5111782;28;20686;-87
2022/06/12 11:36:23;;;;;;;3.27;2.97;;;28.90;61.60;;;;;;5109820;27;20651;-86
2022/06/12 11:39:05;;;;;;;2.90;2.70;;;29.50;58.80;;;;;;5102616;28;20619;-83
2022/06/12 11:41:44;;;;;;;2.53;2.43;;;30.10;57.40;;;;;;5104792;28;20662;-85
2022/06/12 11:44:25;;;;;;;2.43;2.27;;;30.60;56.90;;;;;;5109037;28;20630;-85
2022/06/12 11:47:04;;;;;;;2.90;2.70;;;30.50;56.30;;;;;;5110200;28;21044;-84
2022/06/12 11:49:38;;;;;;;2.70;2.50;;;30.60;54.20;;;;;;5111071;28;20648;-88
2022/06/12 11:52:29;;;;;;;2.33;2.23;;;30.80;55.30;;;;;;5108616;28;20724;-86
2022/06/12 11:55:18;;;;;;;3.00;2.43;;;30.40;54.70;;;;;;5110559;28;20695;-85
2022/06/12 11:57:58;;;;;;;2.73;2.30;;;30.10;54.80;;;;;;5110264;28;20651;-84
2022/06/12 12:00:35;;;;;;;2.20;2.10;;;29.50;55.30;;;;;;5095063;28;20666;-87
2022/06/12 12:03:25;;;;;;;2.20;2.00;;;30.10;55.30;;;;;;5108028;28;20620;-89
2022/06/12 12:06:04;;;;;;;2.30;2.10;;;31.50;53.70;;;;;;5103052;28;21193;-89
2022/06/12 12:08:48;;;;;;;2.33;2.17;;;32.90;51.40;;;;;;5105479;28;20750;-88
2022/06/12 12:11:19;;;;;;;1.93;1.83;;;33.60;49.90;;;;;;5108147;27;21233;-89
2022/06/12 12:13:50;;;;;;;3.30;3.10;;;34.50;50.00;;;;;;5107032;27;20694;-89
2022/06/12 12:16:28;;;;;;;2.57;2.37;;;35.10;49.00;;;;;;5109076;28;20713;-88
2022/06/12 12:18:59;;;;;;;2.20;2.10;;;35.50;47.60;;;;;;5108882;28;20966;-88
2022/06/12 12:21:34;;;;;;;3.10;2.90;;;35.90;45.80;;;;;;5110009;28;20632;-89
2022/06/12 12:24:02;;;;;;;2.53;2.33;;;36.40;45.30;;;;;;5109091;28;20288;-88
2022/06/12 12:26:33;;;;;;;2.58;2.38;;;36.80;43.80;;;;;;5108850;28;20189;-89
2022/06/12 12:29:03;;;;;;;2.38;2.28;;;37.10;43.20;;;;;;5109857;28;20193;-89
2022/06/12 12:31:31;;;;;;;2.40;2.30;;;37.30;43.70;;;;;;5109886;28;20219;-89
2022/06/12 12:34:02;;;;;;;2.35;2.25;;;37.00;42.50;;;;;;5109344;28;20313;-90
2022/06/12 12:42:25;;;;;;;3.00;2.80;;;33.30;48.90;;;;;;5108728;28;20646;-88
2022/06/12 12:44:54;;;;;;;2.87;2.67;;;32.40;49.00;;;;;;5091317;28;20763;-89
2022/06/12 12:47:24;;;;;;;2.80;2.60;;;31.70;51.30;;;;;;5108530;28;20635;-89
2022/06/12 12:50:03;;;;;;;2.53;2.33;;;31.20;50.70;;;;;;5109112;28;20655;-88
2022/06/12 12:52:45;;;;;;;2.33;2.23;;;31.00;50.70;;;;;;5109245;28;21137;-88
2022/06/12 12:55:29;;;;;;;2.00;1.90;;;31.10;51.30;;;;;;5107712;28;20623;-87
2022/06/12 12:57:57;;;;;;;2.03;1.93;;;31.20;53.00;;;;;;5108925;28;20666;-88
2022/06/12 13:00:33;;;;;;;2.33;2.13;;;32.00;52.00;;;;;;5091378;28;20612;-89
2022/06/12 13:03:09;;;;;;;2.13;1.97;;;30.80;50.90;;;;;;5093715;28;20627;-88
2022/06/12 13:05:52;;;;;;;1.97;1.87;;;30.30;52.00;;;;;;5107397;28;20662;-87
2022/06/12 13:08:31;;;;;;;2.97;2.77;;;30.20;52.20;;;;;;5107317;28;21209;-88
2022/06/12 13:11:08;;;;;;;2.77;2.57;;;30.40;52.90;;;;;;5108519;28;20630;-88
2022/06/12 13:13:57;;;;;;;2.60;2.40;;;30.40;53.40;;;;;;5108924;28;20631;-88
2022/06/12 13:16:40;;;;;;;1.93;1.83;;;30.00;53.40;;;;;;5107903;28;21212;-88
2022/06/12 13:19:20;;;;;;;2.47;2.23;;;29.90;54.70;;;;;;5107810;28;20992;-88
2022/06/12 13:22:00;;;;;;;2.60;2.40;;;29.50;53.40;;;;;;5106658;28;20657;-86
2022/06/12 13:24:32;;;;;;;2.20;2.10;;;29.20;54.50;;;;;;5106971;28;20655;-88
2022/06/12 13:27:10;;;;;;;2.17;2.07;;;29.10;54.30;;;;;;5095042;28;20644;-89
2022/06/12 13:29:43;;;;;;;2.33;2.23;;;29.10;54.20;;;;;;5104655;28;20638;-86
2022/06/12 13:32:22;;;;;;;2.20;2.10;;;29.20;53.40;;;;;;5106783;28;20644;-88
2022/06/12 13:34:56;;;;;;;2.80;2.23;;;29.10;54.50;;;;;;5107600;28;20638;-89